Amherst, Massachusetts
Current Conditions -  °F | °C
As of 2:58 AM on Saturday 25 Oct 2014 (Local Time) from KCEF Reporting Station
Clear Clear  
Wind Chill: 39°   Ceiling: Unl
Heat Index: 39°   Visibility: 10mi
Dew Point: 38°   Wind: 1mph
Humidity: 97%   Direction: 180°S
Pressure: 29.79"   Gusts: NA
Location:  42.38°N, 72.52°W
Report Text: KCEF 250658Z AUTO 18001KT 10SM CLR 04/03 A2979 RMK AO2 SLP095 T00390034
Loading
Personal Weather Stations






























Interactive Weather Map
Tropical Storm Tracking
New forecast layout! Learn more

10-Day Weather Forecast

Advertisements
Track Severe Weather on mobile